sensor_id;sensor_type;location;lat;lon;timestamp;pressure;altitude;pressure_sealevel;temperature
72405;BMP280;60395;52.020;113.548;2022-08-23T00:02:31;93028.63;;;32.53
72405;BMP280;60395;52.020;113.548;2022-08-23T00:05:35;93026.34;;;33.01
72405;BMP280;60395;52.020;113.548;2022-08-23T00:08:38;93032.47;;;35.24
72405;BMP280;60395;52.020;113.548;2022-08-23T00:12:14;93031.63;;;34.78
72405;BMP280;60395;52.020;113.548;2022-08-23T00:15:19;93031.38;;;34.25
72405;BMP280;60395;52.020;113.548;2022-08-23T00:18:23;93037.28;;;33.77
72405;BMP280;60395;52.020;113.548;2022-08-23T00:21:26;93033.50;;;33.74
72405;BMP280;60395;52.020;113.548;2022-08-23T00:24:30;93035.59;;;33.74
72405;BMP280;60395;52.020;113.548;2022-08-23T00:27:39;93036.31;;;34.42
72405;BMP280;60395;52.020;113.548;2022-08-23T00:30:42;93036.88;;;34.49
72405;BMP280;60395;52.020;113.548;2022-08-23T00:33:45;93040.03;;;34.76
72405;BMP280;60395;52.020;113.548;2022-08-23T00:36:49;93037.25;;;35.06
72405;BMP280;60395;52.020;113.548;2022-08-23T00:39:52;93037.78;;;34.41
72405;BMP280;60395;52.020;113.548;2022-08-23T00:43:01;93038.25;;;33.93
72405;BMP280;60395;52.020;113.548;2022-08-23T00:46:41;93022.44;;;31.93
72405;BMP280;60395;52.020;113.548;2022-08-23T00:53:30;93032.56;;;26.95
72405;BMP280;60395;52.020;113.548;2022-08-23T00:56:34;93029.03;;;25.09
72405;BMP280;60395;52.020;113.548;2022-08-23T00:59:38;93029.72;;;24.02
72405;BMP280;60395;52.020;113.548;2022-08-23T01:02:42;93034.78;;;23.34
72405;BMP280;60395;52.020;113.548;2022-08-23T01:05:52;93031.28;;;22.72
72405;BMP280;60395;52.020;113.548;2022-08-23T01:09:02;93026.44;;;22.07
72405;BMP280;60395;52.020;113.548;2022-08-23T01:12:16;93022.28;;;21.51
72405;BMP280;60395;52.020;113.548;2022-08-23T01:15:40;93019.06;;;21.13
72405;BMP280;60395;52.020;113.548;2022-08-23T01:18:45;93023.13;;;20.74
72405;BMP280;60395;52.020;113.548;2022-08-23T01:21:59;93017.03;;;20.50
72405;BMP280;60395;52.020;113.548;2022-08-23T01:25:05;93019.47;;;20.29
72405;BMP280;60395;52.020;113.548;2022-08-23T01:28:13;93017.69;;;20.11
72405;BMP280;60395;52.020;113.548;2022-08-23T01:31:18;93020.25;;;20.00
72405;BMP280;60395;52.020;113.548;2022-08-23T01:34:27;93012.63;;;19.92
72405;BMP280;60395;52.020;113.548;2022-08-23T01:37:35;93003.31;;;19.79
72405;BMP280;60395;52.020;113.548;2022-08-23T01:40:40;93005.97;;;19.79
72405;BMP280;60395;52.020;113.548;2022-08-23T01:43:44;93002.31;;;19.72
72405;BMP280;60395;52.020;113.548;2022-08-23T01:46:50;93001.22;;;19.67
72405;BMP280;60395;52.020;113.548;2022-08-23T01:49:59;92999.44;;;19.48
72405;BMP280;60395;52.020;113.548;2022-08-23T01:53:04;92998.56;;;19.25
72405;BMP280;60395;52.020;113.548;2022-08-23T01:56:07;92996.94;;;19.03
72405;BMP280;60395;52.020;113.548;2022-08-23T01:59:12;92983.06;;;19.00
72405;BMP280;60395;52.020;113.548;2022-08-23T02:02:19;92982.41;;;19.00
72405;BMP280;60395;52.020;113.548;2022-08-23T02:05:23;92975.81;;;18.98
72405;BMP280;60395;52.020;113.548;2022-08-23T02:08:26;92972.31;;;19.02
72405;BMP280;60395;52.020;113.548;2022-08-23T02:11:48;92953.41;;;19.08
72405;BMP280;60395;52.020;113.548;2022-08-23T02:14:52;92954.59;;;19.11
72405;BMP280;60395;52.020;113.548;2022-08-23T02:17:59;92955.41;;;19.22
72405;BMP280;60395;52.020;113.548;2022-08-23T02:21:03;92950.31;;;19.31
72405;BMP280;60395;52.020;113.548;2022-08-23T02:24:10;92944.69;;;19.37
72405;BMP280;60395;52.020;113.548;2022-08-23T02:27:15;92945.53;;;19.33
72405;BMP280;60395;52.020;113.548;2022-08-23T02:30:20;92935.09;;;19.29
72405;BMP280;60395;52.020;113.548;2022-08-23T02:33:23;92936.38;;;19.30
72405;BMP280;60395;52.020;113.548;2022-08-23T02:36:27;92934.25;;;19.33
72405;BMP280;60395;52.020;113.548;2022-08-23T02:39:31;92936.13;;;19.22
72405;BMP280;60395;52.020;113.548;2022-08-23T02:42:34;92933.22;;;18.98
72405;BMP280;60395;52.020;113.548;2022-08-23T02:45:38;92931.47;;;18.93
72405;BMP280;60395;52.020;113.548;2022-08-23T02:48:41;92937.88;;;18.98
72405;BMP280;60395;52.020;113.548;2022-08-23T02:51:45;92938.38;;;19.03
72405;BMP280;60395;52.020;113.548;2022-08-23T02:54:48;92934.31;;;19.04
72405;BMP280;60395;52.020;113.548;2022-08-23T02:57:54;92931.53;;;19.06
72405;BMP280;60395;52.020;113.548;2022-08-23T03:00:57;92929.63;;;19.04
72405;BMP280;60395;52.020;113.548;2022-08-23T03:04:05;92926.13;;;19.08
72405;BMP280;60395;52.020;113.548;2022-08-23T03:07:08;92923.66;;;19.04
72405;BMP280;60395;52.020;113.548;2022-08-23T03:10:13;92920.22;;;19.20
72405;BMP280;60395;52.020;113.548;2022-08-23T03:13:26;92914.22;;;19.34
72405;BMP280;60395;52.020;113.548;2022-08-23T03:16:32;92904.75;;;19.37
72405;BMP280;60395;52.020;113.548;2022-08-23T03:19:35;92895.91;;;19.40
72405;BMP280;60395;52.020;113.548;2022-08-23T03:22:41;92894.69;;;19.52
72405;BMP280;60395;52.020;113.548;2022-08-23T03:25:56;92892.81;;;19.63
72405;BMP280;60395;52.020;113.548;2022-08-23T03:29:03;92887.81;;;19.70
72405;BMP280;60395;52.020;113.548;2022-08-23T03:32:18;92886.53;;;19.81
72405;BMP280;60395;52.020;113.548;2022-08-23T03:35:22;92885.19;;;19.95
72405;BMP280;60395;52.020;113.548;2022-08-23T03:38:26;92877.72;;;20.10
72405;BMP280;60395;52.020;113.548;2022-08-23T03:41:30;92870.50;;;20.21
72405;BMP280;60395;52.020;113.548;2022-08-23T03:44:34;92875.59;;;20.25
72405;BMP280;60395;52.020;113.548;2022-08-23T03:47:37;92861.50;;;20.26
72405;BMP280;60395;52.020;113.548;2022-08-23T03:50:41;92859.28;;;20.31
72405;BMP280;60395;52.020;113.548;2022-08-23T03:53:45;92862.81;;;20.40
72405;BMP280;60395;52.020;113.548;2022-08-23T03:56:56;92861.28;;;20.43
72405;BMP280;60395;52.020;113.548;2022-08-23T04:00:10;92847.41;;;20.41
72405;BMP280;60395;52.020;113.548;2022-08-23T04:03:18;92847.56;;;20.39
72405;BMP280;60395;52.020;113.548;2022-08-23T04:06:35;92826.41;;;20.47
72405;BMP280;60395;52.020;113.548;2022-08-23T04:09:38;92828.50;;;20.57
72405;BMP280;60395;52.020;113.548;2022-08-23T04:12:46;92825.75;;;20.59
72405;BMP280;60395;52.020;113.548;2022-08-23T04:15:50;92824.31;;;20.73
72405;BMP280;60395;52.020;113.548;2022-08-23T04:18:53;92819.53;;;20.63
72405;BMP280;60395;52.020;113.548;2022-08-23T04:21:59;92801.59;;;20.61
72405;BMP280;60395;52.020;113.548;2022-08-23T04:25:10;92806.53;;;20.57
72405;BMP280;60395;52.020;113.548;2022-08-23T04:28:35;92803.50;;;20.63
72405;BMP280;60395;52.020;113.548;2022-08-23T04:31:38;92814.16;;;20.75
72405;BMP280;60395;52.020;113.548;2022-08-23T04:34:42;92804.00;;;20.78
72405;BMP280;60395;52.020;113.548;2022-08-23T04:37:49;92801.28;;;20.90
72405;BMP280;60395;52.020;113.548;2022-08-23T04:40:54;92794.84;;;20.98
72405;BMP280;60395;52.020;113.548;2022-08-23T04:44:17;92802.03;;;21.12
72405;BMP280;60395;52.020;113.548;2022-08-23T04:47:22;92801.13;;;21.28
72405;BMP280;60395;52.020;113.548;2022-08-23T04:50:28;92804.28;;;21.54
72405;BMP280;60395;52.020;113.548;2022-08-23T04:53:50;92791.00;;;21.86
72405;BMP280;60395;52.020;113.548;2022-08-23T04:57:13;92784.41;;;22.16
72405;BMP280;60395;52.020;113.548;2022-08-23T05:00:19;92784.66;;;22.23
72405;BMP280;60395;52.020;113.548;2022-08-23T05:03:29;92778.81;;;22.20
72405;BMP280;60395;52.020;113.548;2022-08-23T05:06:33;92776.00;;;22.33
72405;BMP280;60395;52.020;113.548;2022-08-23T05:09:37;92769.53;;;22.30
72405;BMP280;60395;52.020;113.548;2022-08-23T05:12:40;92760.84;;;22.51
72405;BMP280;60395;52.020;113.548;2022-08-23T05:15:44;92752.44;;;22.57
72405;BMP280;60395;52.020;113.548;2022-08-23T05:18:48;92752.44;;;22.57
72405;BMP280;60395;52.020;113.548;2022-08-23T05:21:51;92743.75;;;22.56
72405;BMP280;60395;52.020;113.548;2022-08-23T05:25:10;92746.06;;;22.52
72405;BMP280;60395;52.020;113.548;2022-08-23T05:28:23;92741.22;;;22.65
72405;BMP280;60395;52.020;113.548;2022-08-23T05:31:27;92735.00;;;22.36
72405;BMP280;60395;52.020;113.548;2022-08-23T05:34:35;92746.56;;;22.12
72405;BMP280;60395;52.020;113.548;2022-08-23T05:37:43;92745.63;;;21.73
72405;BMP280;60395;52.020;113.548;2022-08-23T05:40:51;92732.63;;;21.67
72405;BMP280;60395;52.020;113.548;2022-08-23T05:43:56;92719.44;;;21.76
72405;BMP280;60395;52.020;113.548;2022-08-23T05:47:04;92724.91;;;21.84
72405;BMP280;60395;52.020;113.548;2022-08-23T05:50:26;92710.22;;;21.72
72405;BMP280;60395;52.020;113.548;2022-08-23T05:53:30;92711.00;;;21.60
72405;BMP280;60395;52.020;113.548;2022-08-23T05:56:36;92710.22;;;21.62
72405;BMP280;60395;52.020;113.548;2022-08-23T05:59:43;92710.91;;;21.84
72405;BMP280;60395;52.020;113.548;2022-08-23T06:02:47;92704.03;;;22.08
72405;BMP280;60395;52.020;113.548;2022-08-23T06:05:59;92703.00;;;22.24
72405;BMP280;60395;52.020;113.548;2022-08-23T06:09:05;92697.16;;;22.21
72405;BMP280;60395;52.020;113.548;2022-08-23T06:12:09;92691.63;;;22.44
72405;BMP280;60395;52.020;113.548;2022-08-23T06:15:13;92679.59;;;22.75
72405;BMP280;60395;52.020;113.548;2022-08-23T06:18:16;92674.78;;;22.97
72405;BMP280;60395;52.020;113.548;2022-08-23T06:21:20;92673.44;;;23.06
72405;BMP280;60395;52.020;113.548;2022-08-23T06:24:23;92670.47;;;22.91
72405;BMP280;60395;52.020;113.548;2022-08-23T06:27:34;92670.47;;;22.91
72405;BMP280;60395;52.020;113.548;2022-08-23T06:30:38;92663.25;;;22.98
72405;BMP280;60395;52.020;113.548;2022-08-23T06:33:53;92653.47;;;22.95
72405;BMP280;60395;52.020;113.548;2022-08-23T06:37:28;92658.44;;;23.01
72405;BMP280;60395;52.020;113.548;2022-08-23T06:40:40;92636.47;;;22.98
72405;BMP280;60395;52.020;113.548;2022-08-23T06:44:01;92632.97;;;22.91
72405;BMP280;60395;52.020;113.548;2022-08-23T06:47:25;92637.00;;;22.71
72405;BMP280;60395;52.020;113.548;2022-08-23T06:50:28;92621.75;;;22.59
72405;BMP280;60395;52.020;113.548;2022-08-23T06:53:53;92623.59;;;22.71
72405;BMP280;60395;52.020;113.548;2022-08-23T06:57:35;92625.16;;;22.68
72405;BMP280;60395;52.020;113.548;2022-08-23T07:01:09;92607.97;;;22.65
72405;BMP280;60395;52.020;113.548;2022-08-23T07:04:42;92614.72;;;22.64
72405;BMP280;60395;52.020;113.548;2022-08-23T07:08:03;92608.56;;;22.66
72405;BMP280;60395;52.020;113.548;2022-08-23T07:11:06;92607.00;;;22.79
72405;BMP280;60395;52.020;113.548;2022-08-23T07:14:16;92598.84;;;23.00
72405;BMP280;60395;52.020;113.548;2022-08-23T07:17:19;92604.84;;;23.01
72405;BMP280;60395;52.020;113.548;2022-08-23T07:20:23;92598.38;;;22.98
72405;BMP280;60395;52.020;113.548;2022-08-23T07:23:27;92594.97;;;22.89
72405;BMP280;60395;52.020;113.548;2022-08-23T07:26:37;92596.34;;;22.69
72405;BMP280;60395;52.020;113.548;2022-08-23T07:29:42;92588.03;;;22.43
72405;BMP280;60395;52.020;113.548;2022-08-23T07:32:45;92585.16;;;22.26
72405;BMP280;60395;52.020;113.548;2022-08-23T07:35:54;92581.34;;;22.12
72405;BMP280;60395;52.020;113.548;2022-08-23T07:38:59;92570.00;;;22.22
72405;BMP280;60395;52.020;113.548;2022-08-23T07:42:04;92568.00;;;22.42
72405;BMP280;60395;52.020;113.548;2022-08-23T07:45:27;92558.97;;;22.48
72405;BMP280;60395;52.020;113.548;2022-08-23T07:48:34;92565.19;;;22.44
72405;BMP280;60395;52.020;113.548;2022-08-23T07:52:02;92564.19;;;22.39
72405;BMP280;60395;52.020;113.548;2022-08-23T07:55:06;92570.22;;;22.29
72405;BMP280;60395;52.020;113.548;2022-08-23T07:58:25;92552.53;;;22.23
72405;BMP280;60395;52.020;113.548;2022-08-23T08:02:00;92561.09;;;22.56
72405;BMP280;60395;52.020;113.548;2022-08-23T08:05:04;92553.25;;;22.43
72405;BMP280;60395;52.020;113.548;2022-08-23T08:08:08;92539.78;;;22.24
72405;BMP280;60395;52.020;113.548;2022-08-23T08:11:12;92540.72;;;22.20
72405;BMP280;60395;52.020;113.548;2022-08-23T08:14:16;92535.56;;;21.87
72405;BMP280;60395;52.020;113.548;2022-08-23T08:17:25;92540.16;;;21.78
72405;BMP280;60395;52.020;113.548;2022-08-23T08:20:47;92529.06;;;21.84
72405;BMP280;60395;52.020;113.548;2022-08-23T08:24:10;92524.81;;;22.08
72405;BMP280;60395;52.020;113.548;2022-08-23T08:27:31;92521.66;;;22.35
72405;BMP280;60395;52.020;113.548;2022-08-23T08:30:37;92516.59;;;22.50
72405;BMP280;60395;52.020;113.548;2022-08-23T08:33:41;92506.47;;;22.61
72405;BMP280;60395;52.020;113.548;2022-08-23T08:36:50;92517.22;;;22.80
72405;BMP280;60395;52.020;113.548;2022-08-23T08:39:58;92516.88;;;22.95
72405;BMP280;60395;52.020;113.548;2022-08-23T08:46:27;92508.19;;;23.13
72405;BMP280;60395;52.020;113.548;2022-08-23T08:49:53;92507.34;;;23.06
72405;BMP280;60395;52.020;113.548;2022-08-23T08:53:21;92503.34;;;22.97
72405;BMP280;60395;52.020;113.548;2022-08-23T08:56:50;92500.66;;;22.78
72405;BMP280;60395;52.020;113.548;2022-08-23T09:00:25;92497.28;;;22.69
72405;BMP280;60395;52.020;113.548;2022-08-23T09:03:32;92501.84;;;22.51
72405;BMP280;60395;52.020;113.548;2022-08-23T09:06:49;92500.78;;;22.37
72405;BMP280;60395;52.020;113.548;2022-08-23T09:17:20;92492.88;;;21.95
72405;BMP280;60395;52.020;113.548;2022-08-23T09:20:28;92487.09;;;21.72
72405;BMP280;60395;52.020;113.548;2022-08-23T09:23:47;92492.19;;;21.65
72405;BMP280;60395;52.020;113.548;2022-08-23T09:27:27;92492.47;;;21.61
72405;BMP280;60395;52.020;113.548;2022-08-23T09:30:54;92488.88;;;21.75
72405;BMP280;60395;52.020;113.548;2022-08-23T09:34:00;92484.41;;;21.82
72405;BMP280;60395;52.020;113.548;2022-08-23T09:37:23;92478.09;;;21.96
72405;BMP280;60395;52.020;113.548;2022-08-23T09:40:33;92475.53;;;22.05
72405;BMP280;60395;52.020;113.548;2022-08-23T09:43:43;92475.69;;;22.03
72405;BMP280;60395;52.020;113.548;2022-08-23T09:47:13;92466.78;;;21.96
72405;BMP280;60395;52.020;113.548;2022-08-23T09:50:29;92471.50;;;21.85
72405;BMP280;60395;52.020;113.548;2022-08-23T09:53:34;92468.66;;;21.67
72405;BMP280;60395;52.020;113.548;2022-08-23T09:56:56;92468.50;;;21.69
72405;BMP280;60395;52.020;113.548;2022-08-23T10:04:10;92462.41;;;21.71
72405;BMP280;60395;52.020;113.548;2022-08-23T10:07:36;92446.84;;;21.73
72405;BMP280;60395;52.020;113.548;2022-08-23T10:10:51;92452.09;;;21.76
72405;BMP280;60395;52.020;113.548;2022-08-23T10:14:04;92449.25;;;21.78
72405;BMP280;60395;52.020;113.548;2022-08-23T10:51:17;92434.97;;;20.56
72405;BMP280;60395;52.020;113.548;2022-08-23T10:54:49;92441.41;;;20.38
72405;BMP280;60395;52.020;113.548;2022-08-23T10:58:19;92442.50;;;20.20
72405;BMP280;60395;52.020;113.548;2022-08-23T11:04:50;92446.78;;;19.81
72405;BMP280;60395;52.020;113.548;2022-08-23T11:08:08;92449.22;;;19.62
72405;BMP280;60395;52.020;113.548;2022-08-23T11:15:13;92443.78;;;19.28
72405;BMP280;60395;52.020;113.548;2022-08-23T11:18:44;92439.25;;;19.14
72405;BMP280;60395;52.020;113.548;2022-08-23T11:22:13;92435.56;;;18.96
72405;BMP280;60395;52.020;113.548;2022-08-23T11:35:08;92444.13;;;18.36
72405;BMP280;60395;52.020;113.548;2022-08-23T11:38:18;92442.06;;;18.24
72405;BMP280;60395;52.020;113.548;2022-08-23T11:48:39;92462.53;;;18.00
72405;BMP280;60395;52.020;113.548;2022-08-23T11:55:23;92467.44;;;17.68
72405;BMP280;60395;52.020;113.548;2022-08-23T12:01:57;92482.16;;;17.53
72405;BMP280;60395;52.020;113.548;2022-08-23T12:05:16;92477.03;;;17.49
72405;BMP280;60395;52.020;113.548;2022-08-23T12:08:29;92479.06;;;17.48
72405;BMP280;60395;52.020;113.548;2022-08-23T12:15:04;92487.53;;;17.51
72405;BMP280;60395;52.020;113.548;2022-08-23T12:18:11;92487.25;;;17.57
72405;BMP280;60395;52.020;113.548;2022-08-23T12:21:22;92491.19;;;17.58
72405;BMP280;60395;52.020;113.548;2022-08-23T12:24:37;92498.63;;;17.55
72405;BMP280;60395;52.020;113.548;2022-08-23T12:27:46;92498.72;;;17.53
72405;BMP280;60395;52.020;113.548;2022-08-23T12:38:15;92494.78;;;17.52
72405;BMP280;60395;52.020;113.548;2022-08-23T12:44:29;92492.34;;;17.48
72405;BMP280;60395;52.020;113.548;2022-08-23T12:47:35;92493.16;;;17.45
72405;BMP280;60395;52.020;113.548;2022-08-23T12:50:51;92488.66;;;17.41
72405;BMP280;60395;52.020;113.548;2022-08-23T12:53:54;92495.91;;;17.43
72405;BMP280;60395;52.020;113.548;2022-08-23T12:56:58;92492.06;;;17.40
72405;BMP280;60395;52.020;113.548;2022-08-23T13:03:39;92483.28;;;17.43
72405;BMP280;60395;52.020;113.548;2022-08-23T13:06:49;92485.72;;;17.47
72405;BMP280;60395;52.020;113.548;2022-08-23T13:09:53;92476.78;;;17.40
72405;BMP280;60395;52.020;113.548;2022-08-23T13:12:58;92478.69;;;17.42
72405;BMP280;60395;52.020;113.548;2022-08-23T13:19:33;92467.47;;;17.27
72405;BMP280;60395;52.020;113.548;2022-08-23T13:22:38;92471.03;;;17.21
72405;BMP280;60395;52.020;113.548;2022-08-23T13:25:42;92459.94;;;17.17
72405;BMP280;60395;52.020;113.548;2022-08-23T13:29:10;92472.63;;;17.16
72405;BMP280;60395;52.020;113.548;2022-08-23T13:32:36;92467.47;;;17.12
72405;BMP280;60395;52.020;113.548;2022-08-23T13:35:42;92459.19;;;17.06
72405;BMP280;60395;52.020;113.548;2022-08-23T13:38:48;92456.69;;;17.01
72405;BMP280;60395;52.020;113.548;2022-08-23T13:41:52;92458.25;;;16.96
72405;BMP280;60395;52.020;113.548;2022-08-23T13:44:55;92458.00;;;16.88
72405;BMP280;60395;52.020;113.548;2022-08-23T13:48:06;92460.91;;;16.82
72405;BMP280;60395;52.020;113.548;2022-08-23T13:51:34;92453.22;;;16.76
72405;BMP280;60395;52.020;113.548;2022-08-23T13:54:39;92457.72;;;16.65
72405;BMP280;60395;52.020;113.548;2022-08-23T13:57:43;92451.00;;;16.51
72405;BMP280;60395;52.020;113.548;2022-08-23T14:00:46;92450.81;;;16.40
72405;BMP280;60395;52.020;113.548;2022-08-23T14:03:56;92458.56;;;16.30
72405;BMP280;60395;52.020;113.548;2022-08-23T14:07:03;92455.00;;;16.21
72405;BMP280;60395;52.020;113.548;2022-08-23T14:10:07;92464.91;;;16.06
72405;BMP280;60395;52.020;113.548;2022-08-23T14:13:10;92465.50;;;15.92
72405;BMP280;60395;52.020;113.548;2022-08-23T14:16:25;92460.69;;;15.79
72405;BMP280;60395;52.020;113.548;2022-08-23T14:19:41;92460.63;;;15.65
72405;BMP280;60395;52.020;113.548;2022-08-23T14:23:08;92458.47;;;15.53
72405;BMP280;60395;52.020;113.548;2022-08-23T14:26:16;92456.06;;;15.47
72405;BMP280;60395;52.020;113.548;2022-08-23T14:29:21;92450.44;;;15.38
72405;BMP280;60395;52.020;113.548;2022-08-23T14:32:24;92445.16;;;15.38
72405;BMP280;60395;52.020;113.548;2022-08-23T14:35:27;92441.78;;;15.23
72405;BMP280;60395;52.020;113.548;2022-08-23T14:38:30;92452.78;;;15.13
72405;BMP280;60395;52.020;113.548;2022-08-23T14:41:34;92449.06;;;15.06
72405;BMP280;60395;52.020;113.548;2022-08-23T14:44:37;92438.81;;;14.98
72405;BMP280;60395;52.020;113.548;2022-08-23T14:47:40;92441.06;;;14.91
72405;BMP280;60395;52.020;113.548;2022-08-23T14:50:44;92447.31;;;14.82
72405;BMP280;60395;52.020;113.548;2022-08-23T14:53:48;92446.63;;;14.83
72405;BMP280;60395;52.020;113.548;2022-08-23T14:56:51;92449.00;;;14.73
72405;BMP280;60395;52.020;113.548;2022-08-23T14:59:54;92437.47;;;14.63
72405;BMP280;60395;52.020;113.548;2022-08-23T15:02:58;92447.00;;;14.54
72405;BMP280;60395;52.020;113.548;2022-08-23T15:06:01;92443.44;;;14.43
72405;BMP280;60395;52.020;113.548;2022-08-23T15:09:04;92441.31;;;14.29
72405;BMP280;60395;52.020;113.548;2022-08-23T15:12:08;92445.09;;;14.16
72405;BMP280;60395;52.020;113.548;2022-08-23T15:15:32;92444.78;;;14.05
72405;BMP280;60395;52.020;113.548;2022-08-23T15:18:37;92448.44;;;13.95
72405;BMP280;60395;52.020;113.548;2022-08-23T15:21:40;92449.31;;;13.88
72405;BMP280;60395;52.020;113.548;2022-08-23T15:24:44;92447.53;;;13.82
72405;BMP280;60395;52.020;113.548;2022-08-23T15:27:47;92445.25;;;13.72
72405;BMP280;60395;52.020;113.548;2022-08-23T15:30:50;92447.94;;;13.70
72405;BMP280;60395;52.020;113.548;2022-08-23T15:33:53;92446.16;;;13.65
72405;BMP280;60395;52.020;113.548;2022-08-23T15:36:57;92454.13;;;13.63
72405;BMP280;60395;52.020;113.548;2022-08-23T15:40:00;92450.84;;;13.62
72405;BMP280;60395;52.020;113.548;2022-08-23T15:43:03;92455.53;;;13.60
72405;BMP280;60395;52.020;113.548;2022-08-23T15:46:10;92452.97;;;13.58
72405;BMP280;60395;52.020;113.548;2022-08-23T15:49:15;92453.75;;;13.54
72405;BMP280;60395;52.020;113.548;2022-08-23T15:52:19;92455.22;;;13.49
72405;BMP280;60395;52.020;113.548;2022-08-23T15:55:24;92450.06;;;13.45
72405;BMP280;60395;52.020;113.548;2022-08-23T15:58:29;92452.72;;;13.45
72405;BMP280;60395;52.020;113.548;2022-08-23T16:01:32;92452.53;;;13.51
72405;BMP280;60395;52.020;113.548;2022-08-23T16:04:38;92449.72;;;13.55
72405;BMP280;60395;52.020;113.548;2022-08-23T16:07:41;92451.91;;;13.48
72405;BMP280;60395;52.020;113.548;2022-08-23T16:10:45;92452.25;;;13.38
72405;BMP280;60395;52.020;113.548;2022-08-23T16:13:49;92453.09;;;13.33
72405;BMP280;60395;52.020;113.548;2022-08-23T16:16:57;92446.97;;;13.38
72405;BMP280;60395;52.020;113.548;2022-08-23T16:20:01;92448.84;;;13.42
72405;BMP280;60395;52.020;113.548;2022-08-23T16:23:05;92443.50;;;13.44
72405;BMP280;60395;52.020;113.548;2022-08-23T16:26:12;92441.50;;;13.44
72405;BMP280;60395;52.020;113.548;2022-08-23T16:29:17;92451.72;;;13.55
72405;BMP280;60395;52.020;113.548;2022-08-23T16:32:21;92446.06;;;13.67
72405;BMP280;60395;52.020;113.548;2022-08-23T16:35:24;92445.03;;;13.78
72405;BMP280;60395;52.020;113.548;2022-08-23T16:38:28;92452.75;;;13.84
72405;BMP280;60395;52.020;113.548;2022-08-23T16:41:31;92440.13;;;13.87
72405;BMP280;60395;52.020;113.548;2022-08-23T16:44:34;92449.78;;;13.94
72405;BMP280;60395;52.020;113.548;2022-08-23T16:47:40;92449.53;;;14.02
72405;BMP280;60395;52.020;113.548;2022-08-23T16:50:45;92450.72;;;14.05
72405;BMP280;60395;52.020;113.548;2022-08-23T16:53:49;92453.22;;;14.10
72405;BMP280;60395;52.020;113.548;2022-08-23T16:57:03;92446.38;;;14.17
72405;BMP280;60395;52.020;113.548;2022-08-23T17:00:08;92449.81;;;14.13
72405;BMP280;60395;52.020;113.548;2022-08-23T17:03:14;92451.97;;;14.09
72405;BMP280;60395;52.020;113.548;2022-08-23T17:06:17;92448.06;;;14.05
72405;BMP280;60395;52.020;113.548;2022-08-23T17:09:22;92458.72;;;14.03
72405;BMP280;60395;52.020;113.548;2022-08-23T17:12:26;92446.34;;;13.98
72405;BMP280;60395;52.020;113.548;2022-08-23T17:15:34;92453.00;;;13.97
72405;BMP280;60395;52.020;113.548;2022-08-23T17:18:42;92443.28;;;13.91
72405;BMP280;60395;52.020;113.548;2022-08-23T17:21:46;92444.03;;;13.88
72405;BMP280;60395;52.020;113.548;2022-08-23T17:24:49;92438.22;;;13.85
72405;BMP280;60395;52.020;113.548;2022-08-23T17:27:54;92433.63;;;13.84
72405;BMP280;60395;52.020;113.548;2022-08-23T17:30:58;92440.91;;;13.83
72405;BMP280;60395;52.020;113.548;2022-08-23T17:34:02;92427.84;;;13.79
72405;BMP280;60395;52.020;113.548;2022-08-23T17:37:18;92423.97;;;13.76
72405;BMP280;60395;52.020;113.548;2022-08-23T17:40:26;92429.53;;;13.68
72405;BMP280;60395;52.020;113.548;2022-08-23T17:43:30;92433.16;;;13.59
72405;BMP280;60395;52.020;113.548;2022-08-23T17:46:36;92431.41;;;13.51
72405;BMP280;60395;52.020;113.548;2022-08-23T17:49:41;92428.97;;;13.45
72405;BMP280;60395;52.020;113.548;2022-08-23T17:52:44;92431.69;;;13.43
72405;BMP280;60395;52.020;113.548;2022-08-23T17:55:47;92433.75;;;13.40
72405;BMP280;60395;52.020;113.548;2022-08-23T17:58:51;92442.47;;;13.35
72405;BMP280;60395;52.020;113.548;2022-08-23T18:01:55;92431.09;;;13.20
72405;BMP280;60395;52.020;113.548;2022-08-23T18:04:59;92434.03;;;13.10
72405;BMP280;60395;52.020;113.548;2022-08-23T18:08:02;92439.50;;;13.04
72405;BMP280;60395;52.020;113.548;2022-08-23T18:11:05;92435.59;;;13.03
72405;BMP280;60395;52.020;113.548;2022-08-23T18:14:09;92435.41;;;13.09
72405;BMP280;60395;52.020;113.548;2022-08-23T18:17:12;92426.56;;;13.16
72405;BMP280;60395;52.020;113.548;2022-08-23T18:20:15;92425.31;;;13.15
72405;BMP280;60395;52.020;113.548;2022-08-23T18:23:18;92422.72;;;13.13
72405;BMP280;60395;52.020;113.548;2022-08-23T18:26:22;92418.78;;;13.12
72405;BMP280;60395;52.020;113.548;2022-08-23T18:29:44;92417.50;;;13.11
72405;BMP280;60395;52.020;113.548;2022-08-23T18:32:53;92415.00;;;13.07
72405;BMP280;60395;52.020;113.548;2022-08-23T18:35:56;92409.03;;;13.09
72405;BMP280;60395;52.020;113.548;2022-08-23T18:38:59;92421.59;;;13.06
72405;BMP280;60395;52.020;113.548;2022-08-23T18:42:04;92407.84;;;13.04
72405;BMP280;60395;52.020;113.548;2022-08-23T18:45:08;92408.69;;;12.98
72405;BMP280;60395;52.020;113.548;2022-08-23T18:48:11;92406.16;;;12.94
72405;BMP280;60395;52.020;113.548;2022-08-23T18:51:14;92407.09;;;12.84
72405;BMP280;60395;52.020;113.548;2022-08-23T18:54:19;92400.84;;;12.73
72405;BMP280;60395;52.020;113.548;2022-08-23T18:57:22;92405.75;;;12.63
72405;BMP280;60395;52.020;113.548;2022-08-23T19:00:25;92401.44;;;12.53
72405;BMP280;60395;52.020;113.548;2022-08-23T19:03:28;92406.81;;;12.49
72405;BMP280;60395;52.020;113.548;2022-08-23T19:06:32;92406.09;;;12.51
72405;BMP280;60395;52.020;113.548;2022-08-23T19:09:36;92405.56;;;12.48
72405;BMP280;60395;52.020;113.548;2022-08-23T19:12:39;92407.59;;;12.46
72405;BMP280;60395;52.020;113.548;2022-08-23T19:15:55;92412.91;;;12.44
72405;BMP280;60395;52.020;113.548;2022-08-23T19:18:58;92402.44;;;12.42
72405;BMP280;60395;52.020;113.548;2022-08-23T19:22:02;92406.28;;;12.45